Merrifield, MN (56465)

1:21 AM CDT on May 23, 2017 (GMT -0500)
Jacksonville Acres | | Change Station

Elev 1224 ft 46.39 °N, 94.21 °W | Updated 5 minutes ago

Overcast
Overcast
45.3 °F
Feels Like 45 °F
N
0.0
Wind Variable Wind from NNE

Today
High -- | Low -- °F
--% Chance of Precip.
Yesterday
High -- | Low -- °F
Precip. -- in
Pressure 29.87 in
Visibility 8.0 miles
Clouds Mostly Cloudy 600 ft
Mostly Cloudy 1400 ft
Overcast 1900 ft
Windchill 45 °F
Dew Point 43 °F
Humidity 93%
Rainfall 0.05 in
Snow Depth Not available.
5:34 AM 8:53 PM
Waning Crescent, 10% visible
METAR KBRD 230553Z AUTO 34006KT 8SM BKN006 BKN014 OVC019 08/07 A2985 RMK AO2 RAB24E42 CIG 005V011 SLP115 P0000 60000 T00780067 10106 20078 401330061 51003
Pressure 29.87 in
Visibility 8.0 miles
Clouds Mostly Cloudy 600 ft
Mostly Cloudy 1400 ft
Overcast 1900 ft
Windchill 45 °F
Dew Point 43 °F
Humidity 93%
Rainfall 0.05 in
Snow Depth Not available.
5:34 AM 8:53 PM
Waning Crescent, 10% visible
METAR KBRD 230553Z AUTO 34006KT 8SM BKN006 BKN014 OVC019 08/07 A2985 RMK AO2 RAB24E42 CIG 005V011 SLP115 P0000 60000 T00780067 10106 20078 401330061 51003

Get Severe Weather Alerts

Thanks for signing up!

Be on the lookout for a verification email in your inbox.

You'll start receiving the daily forecast at 6 AM.

×

10-Day Weather Forecast

Almanac

Astronomy

May. 23, 2017 Rise Set
Actual Time
Civil Twilight
Nautical Twilight
Astronomical Twilight
Moon
Length of Visible Light
Length of Day
Tomorrow will be .
, % of the Moon is Illuminated

Today's Extremes

State Highs State Lows

Community

WunderPhotos

Category 6

Welcome to Category 6. This is the collective home for Weather Underground's featured writeups by Dr. Jeff Masters (right), Bob Henson (left), Chris Burt, and other regular contributors.

Nearby

Air Quality

  Air Quality AQ Index Pollutant
Not available.

Snow Depth

Station Depth Elevation

Earthquake Activity

City Distance Mag. Time & Date
Minimum magnitude displayed is 2.5.

Coastal Water Temperatures

Place Temperature

Stations

Nearby Weather Stations

Station Location Temp. Windchill Dew Point Humidity Wind Precip. Elev Updated Type
                   

Watches & Warnings

There are currently no watches in effect.